Time;durP1;ratioP1;P1;durP2;ratioP2;P2;SDS_P1;SDS_P2;PMS_P1;PMS_P2;Temp;Humidity;BMP_temperature;BMP_pressure;BME280_temperature;BME280_humidity;BME280_pressure;Samples;Min_cycle;Max_cycle;Signal;HPM_P1;HPM_P2
2022/01/22 00:02:09;;;;;;;4.30;2.00;;;;;;;10.31;35.63;101324.44;4932435;29;20087;-75
2022/01/22 00:04:36;;;;;;;4.00;1.00;;;;;;;9.96;35.70;101286.56;4941289;29;20163;-75
2022/01/22 00:07:06;;;;;;;2.87;1.87;;;;;;;10.18;35.88;101331.22;4952187;28;20110;-75
2022/01/22 00:09:52;;;;;;;5.07;1.67;;;;;;;10.14;35.99;101330.06;4927584;29;20138;-79
2022/01/22 00:14:59;;;;;;;3.13;1.57;;;;;;;9.88;36.13;101348.41;4937088;29;20558;-77
2022/01/22 00:17:26;;;;;;;3.30;1.53;;;;;;;9.81;36.24;101333.78;4932813;29;20131;-76
2022/01/22 00:19:52;;;;;;;8.47;2.53;;;;;;;9.69;36.44;101349.78;4932685;29;20052;-77
2022/01/22 00:22:24;;;;;;;1.50;1.40;;;;;;;9.53;36.80;101343.09;4929927;29;20131;-77
2022/01/22 00:24:56;;;;;;;6.20;1.80;;;;;;;9.27;37.14;101341.84;4926862;29;20094;-78
2022/01/22 00:27:23;;;;;;;0.57;0.57;;;;;;;9.39;37.15;101341.75;4928394;29;20239;-78
2022/01/22 00:29:51;;;;;;;3.80;1.63;;;;;;;9.55;36.81;101332.56;4931064;29;20131;-77
2022/01/22 00:32:18;;;;;;;1.03;0.73;;;;;;;9.57;36.86;101354.59;4933631;29;20475;-78
2022/01/22 00:34:45;;;;;;;1.87;1.27;;;;;;;9.43;37.16;101342.94;4928172;29;20087;-78
2022/01/22 00:37:13;;;;;;;0.70;0.63;;;;;;;9.08;37.36;101305.00;4935925;29;20558;-77
2022/01/22 00:39:40;;;;;;;1.47;1.10;;;;;;;9.32;37.52;101368.97;4934708;29;20135;-77
2022/01/22 00:42:12;;;;;;;0.67;0.67;;;;;;;9.10;37.85;101350.19;4935350;29;20138;-77
2022/01/22 00:44:40;;;;;;;1.03;1.00;;;;;;;9.16;37.77;101374.28;4934772;29;20087;-76
2022/01/22 00:47:07;;;;;;;2.77;1.03;;;;;;;9.04;38.00;101342.00;4934472;29;20130;-75
2022/01/22 00:49:35;;;;;;;1.23;1.07;;;;;;;9.04;38.22;101348.41;4933881;29;20091;-76
2022/01/22 00:52:04;;;;;;;4.90;1.20;;;;;;;9.04;38.26;101337.25;4929732;29;20078;-77
2022/01/22 00:54:31;;;;;;;7.37;1.50;;;;;;;8.66;38.95;101333.22;4963397;28;20062;-76
2022/01/22 00:56:58;;;;;;;5.60;1.53;;;;;;;8.69;39.27;101346.66;4930296;29;20131;-76
2022/01/22 00:59:25;;;;;;;0.63;0.63;;;;;;;8.70;39.25;101339.13;4935102;29;20083;-75
2022/01/22 01:01:53;;;;;;;2.10;1.40;;;;;;;8.62;39.22;101334.81;4930583;29;20131;-76
2022/01/22 01:04:20;;;;;;;4.13;2.03;;;;;;;8.56;39.56;101357.25;4935390;29;20110;-75
2022/01/22 01:06:47;;;;;;;1.13;1.00;;;;;;;8.53;39.59;101339.94;4935370;29;20083;-76
2022/01/22 01:09:14;;;;;;;0.80;0.80;;;;;;;8.35;39.68;101322.56;4964134;28;20115;-75
2022/01/22 01:11:46;;;;;;;1.17;1.07;;;;;;;8.54;39.66;101354.69;4927483;29;20147;-70
2022/01/22 01:14:28;;;;;;;4.20;1.07;;;;;;;8.45;39.75;101347.84;4931941;29;20134;-73
2022/01/22 01:36:02;;;;;;;1.63;0.80;;;;;;;8.55;39.47;101334.13;4920435;29;20210;-78
2022/01/22 01:38:34;;;;;;;1.63;0.90;;;;;;;8.56;39.23;101318.25;4918918;29;20146;-78
2022/01/22 01:41:09;;;;;;;4.70;1.40;;;;;;;8.34;39.57;101299.41;4936687;28;20079;-76
2022/01/22 01:43:37;;;;;;;1.60;1.00;;;;;;;8.60;39.42;101336.16;4918257;29;21689;-77
2022/01/22 01:46:05;;;;;;;1.10;0.77;;;;;;;8.35;39.52;101295.56;4919597;29;20059;-77
2022/01/22 01:48:37;;;;;;;1.13;0.80;;;;;;;8.80;38.65;101302.28;4931271;28;20066;-77
2022/01/22 01:51:05;;;;;;;2.13;0.93;;;;;;;8.52;39.68;101312.34;4919437;29;20131;-76
2022/01/22 01:58:59;;;;;;;3.70;1.20;;;;;;;8.56;39.54;101313.53;4917063;29;20059;-75
2022/01/22 02:01:26;;;;;;;0.63;0.63;;;;;;;8.41;39.55;101296.53;4916865;29;20040;-76
2022/01/22 02:03:53;;;;;;;0.40;0.40;;;;;;;8.45;40.08;101326.41;4917582;29;20056;-76
2022/01/22 02:06:20;;;;;;;3.63;1.13;;;;;;;8.50;39.74;101308.97;4917064;29;20054;-73
2022/01/22 02:08:47;;;;;;;0.97;0.73;;;;;;;8.30;40.31;101301.84;4920077;29;20060;-74
2022/01/22 02:11:17;;;;;;;0.70;0.70;;;;;;;7.91;40.35;101245.13;4917015;29;20058;-72
2022/01/22 02:14:02;;;;;;;1.27;0.65;;;;;;;8.31;40.14;101306.34;4920735;29;20055;-74
2022/01/22 02:24:59;;;;;;;0.83;0.63;;;;;;;7.60;41.30;101279.78;4927037;29;20139;-77
2022/01/22 02:27:26;;;;;;;0.73;0.73;;;;;;;7.67;41.05;101294.38;4922207;29;20195;-76
2022/01/22 02:29:53;;;;;;;0.40;0.40;;;;;;;7.92;41.07;101321.91;4920494;29;20155;-73
2022/01/22 02:35:01;;;;;;;2.47;1.03;;;;;;;7.80;41.12;101302.47;4923351;29;20123;-76
2022/01/22 02:37:34;;;;;;;1.90;0.87;;;;;;;7.86;41.06;101316.47;4933761;28;20908;-76
2022/01/22 02:40:10;;;;;;;3.80;1.40;;;;;;;7.65;41.76;101310.44;4943172;29;20047;-73
2022/01/22 02:42:37;;;;;;;1.80;0.93;;;;;;;7.47;41.70;101277.25;4950829;28;20055;-75
2022/01/22 02:45:11;;;;;;;3.00;1.20;;;;;;;7.23;42.26;101273.63;4963568;28;20035;-76
2022/01/22 02:47:38;;;;;;;2.13;0.90;;;;;;;7.34;42.44;101304.16;4945595;29;20048;-78
2022/01/22 02:50:06;;;;;;;1.17;0.83;;;;;;;7.45;42.20;101307.19;4948582;29;20058;-73
2022/01/22 02:52:33;;;;;;;0.50;0.50;;;;;;;7.30;42.37;101302.97;4951841;29;20047;-72
2022/01/22 02:55:00;;;;;;;1.40;0.50;;;;;;;7.32;42.43;101298.03;4945507;29;20539;-75
2022/01/22 02:57:31;;;;;;;1.60;0.97;;;;;;;7.28;42.22;101302.38;4938444;29;20083;-75
2022/01/22 03:00:00;;;;;;;0.73;0.63;;;;;;;7.36;42.30;101296.44;4925822;29;20056;-74
2022/01/22 03:02:27;;;;;;;0.60;0.60;;;;;;;7.27;42.70;101292.31;4924497;29;20071;-75
2022/01/22 03:04:54;;;;;;;1.63;1.20;;;;;;;6.89;42.84;101253.88;4936197;29;20135;-74
2022/01/22 03:07:21;;;;;;;3.03;0.97;;;;;;;6.74;42.89;101237.69;4920658;29;20091;-73
2022/01/22 03:09:50;;;;;;;3.47;1.03;;;;;;;7.14;43.03;101292.56;4920038;29;20055;-73
2022/01/22 03:17:48;;;;;;;0.80;0.80;;;;;;;6.97;42.88;101261.84;4922878;29;20083;-72
2022/01/22 03:23:05;;;;;;;1.17;0.83;;;;;;;6.99;43.52;101301.34;4921015;29;20422;-72
2022/01/22 03:28:19;;;;;;;1.03;0.80;;;;;;;7.18;42.93;101299.34;4924512;29;20142;-73
2022/01/22 03:30:47;;;;;;;0.97;0.90;;;;;;;7.24;43.04;101301.13;4923081;29;20142;-72
2022/01/22 03:33:18;;;;;;;5.97;1.70;;;;;;;7.02;43.13;101330.59;4927079;29;20142;-73
2022/01/22 03:35:50;;;;;;;1.20;1.00;;;;;;;7.13;43.12;101302.81;4917831;29;20154;-71
2022/01/22 03:38:17;;;;;;;3.60;1.50;;;;;;;6.67;43.07;101222.22;4916293;29;20059;-72
2022/01/22 03:40:48;;;;;;;0.50;0.50;;;;;;;7.19;43.03;101298.25;4920864;29;20047;-71
2022/01/22 03:43:17;;;;;;;0.40;0.40;;;;;;;7.06;42.84;101285.44;4918741;29;20102;-72
2022/01/22 03:45:45;;;;;;;1.43;0.90;;;;;;;7.15;42.68;101322.03;4922413;29;20418;-71
2022/01/22 03:48:12;;;;;;;0.80;0.57;;;;;;;6.99;42.70;101259.69;4935706;29;20150;-71
2022/01/22 03:50:39;;;;;;;1.40;0.80;;;;;;;7.18;42.78;101301.25;4937312;29;20130;-72
2022/01/22 03:53:06;;;;;;;2.47;0.73;;;;;;;7.30;42.40;101307.69;4930419;29;20563;-72
2022/01/22 03:55:52;;;;;;;2.80;0.97;;;;;;;7.00;42.75;101277.22;4935065;29;20139;-72
2022/01/22 03:58:19;;;;;;;0.40;0.40;;;;;;;6.96;42.70;101260.19;4935393;29;20083;-71
2022/01/22 04:00:48;;;;;;;2.10;1.03;;;;;;;7.12;42.68;101272.53;4932786;29;20551;-70
2022/01/22 04:06:27;;;;;;;1.58;1.13;;;;;;;7.12;42.97;101297.53;4921940;29;20181;-71
2022/01/22 04:08:36;;;;;;;1.45;1.00;;;;;;;7.05;43.08;101307.91;4930840;29;20578;-73
2022/01/22 04:11:04;;;;;;;4.90;0.70;;;;;;;7.15;42.55;101312.88;4928336;29;20480;-73
2022/01/22 04:13:34;;;;;;;2.33;0.57;;;;;;;7.15;42.78;101305.38;4921801;29;20170;-74
2022/01/22 04:16:01;;;;;;;;;;;;;;;6.97;42.99;101299.91;4930064;29;20090;-75
2022/01/22 04:26:54;;;;;;;1.90;0.70;;;;;;;6.87;43.21;101309.69;4922863;29;20051;-74
2022/01/22 04:29:24;;;;;;;1.33;0.63;;;;;;;7.11;42.97;101301.38;4919132;29;20612;-76
2022/01/22 04:31:51;;;;;;;0.90;0.63;;;;;;;6.97;42.83;101284.06;4919265;29;20062;-76
2022/01/22 04:34:18;;;;;;;1.70;1.17;;;;;;;6.97;42.88;101299.91;4919145;29;20066;-75
2022/01/22 04:36:45;;;;;;;0.60;0.50;;;;;;;6.86;42.87;101277.41;4935852;29;20588;-75
2022/01/22 04:39:12;;;;;;;2.57;2.13;;;;;;;6.96;43.03;101309.31;4921226;29;20052;-75
2022/01/22 04:41:39;;;;;;;2.03;0.97;;;;;;;6.77;42.96;101284.41;4920005;29;20139;-74
2022/01/22 04:44:07;;;;;;;1.67;0.70;;;;;;;6.62;42.96;101262.63;4929035;29;20142;-75
2022/01/22 04:46:51;;;;;;;3.73;1.00;;;;;;;6.60;43.03;101234.28;4923402;29;20094;-79
2022/01/22 04:57:23;;;;;;;3.80;3.40;;;;;;;6.91;43.23;101306.44;4917374;29;20471;-73
2022/01/22 04:59:50;;;;;;;0.63;0.63;;;;;;;6.88;43.18;101286.38;4924613;29;20065;-73
2022/01/22 05:02:17;;;;;;;0.63;0.63;;;;;;;6.85;42.94;101288.78;4919345;29;20051;-73
2022/01/22 05:04:44;;;;;;;0.60;0.60;;;;;;;6.94;42.96;101294.81;4918287;29;20138;-74
2022/01/22 05:07:11;;;;;;;1.33;0.80;;;;;;;6.91;43.33;101307.28;4919372;29;20063;-73
2022/01/22 05:09:37;;;;;;;1.37;0.80;;;;;;;6.80;43.24;101277.53;4922793;29;20139;-71
2022/01/22 05:12:06;;;;;;;3.10;2.80;;;;;;;6.61;42.67;101262.88;4921220;29;20434;-74
2022/01/22 05:14:34;;;;;;;0.50;0.50;;;;;;;6.52;42.88;101225.44;4919237;29;20142;-73
2022/01/22 05:17:03;;;;;;;0.73;0.70;;;;;;;6.94;42.94;101308.69;4920213;29;20063;-73
2022/01/22 05:19:39;;;;;;;0.77;0.60;;;;;;;7.03;42.80;101304.50;4922203;29;20357;-72
2022/01/22 05:22:20;;;;;;;1.43;0.77;;;;;;;6.98;43.06;101316.34;4914048;29;20583;-73
2022/01/22 05:24:51;;;;;;;0.67;0.63;;;;;;;6.82;43.05;101284.53;4918520;29;20138;-74
2022/01/22 05:37:31;;;;;;;1.47;1.17;;;;;;;7.01;42.77;101313.09;4922287;29;20083;-69
2022/01/22 05:39:58;;;;;;;0.70;0.70;;;;;;;6.45;42.73;101231.09;4918932;29;20510;-70
2022/01/22 05:42:25;;;;;;;4.37;0.73;;;;;;;6.64;42.91;101270.75;4918051;29;20055;-69
2022/01/22 05:44:52;;;;;;;0.30;0.30;;;;;;;6.21;42.28;101158.06;4918279;29;20872;-76
2022/01/22 05:47:26;;;;;;;0.77;0.60;;;;;;;7.17;42.51;101322.63;4918967;29;20074;-75
2022/01/22 05:49:53;;;;;;;1.27;1.00;;;;;;;6.96;42.71;101325.97;4921380;29;20051;-70
2022/01/22 05:52:30;;;;;;;3.43;1.20;;;;;;;7.04;42.67;101331.19;4918804;29;20186;-71
2022/01/22 06:00:15;;;;;;;1.53;0.87;;;;;;;7.22;42.41;101331.09;4917655;29;20083;-72
2022/01/22 06:02:43;;;;;;;1.40;0.80;;;;;;;7.13;42.38;101316.72;4916027;29;20051;-73
2022/01/22 06:05:10;;;;;;;4.70;1.03;;;;;;;7.09;42.32;101314.66;4920050;29;20059;-71
2022/01/22 06:07:37;;;;;;;3.23;1.60;;;;;;;7.18;42.45;101318.78;4920950;29;20586;-72
2022/01/22 06:10:16;;;;;;;1.70;1.00;;;;;;;7.07;42.68;101333.47;4920758;29;20054;-72
2022/01/22 06:12:57;;;;;;;1.97;1.77;;;;;;;6.96;43.00;101360.13;4920746;29;20075;-76
2022/01/22 06:15:24;;;;;;;0.47;0.47;;;;;;;7.03;42.72;101333.13;4921458;29;20256;-74
2022/01/22 06:17:51;;;;;;;1.03;0.93;;;;;;;6.80;43.14;101325.59;4921365;29;20878;-73
2022/01/22 06:20:18;;;;;;;1.80;1.33;;;;;;;6.92;42.52;101319.22;4923704;29;20111;-75
2022/01/22 06:22:45;;;;;;;1.17;0.67;;;;;;;6.90;43.09;101369.41;4921662;29;20066;-73
2022/01/22 06:25:12;;;;;;;2.70;2.50;;;;;;;6.89;43.03;101367.72;4921745;29;20083;-75
2022/01/22 06:27:39;;;;;;;2.10;1.60;;;;;;;6.86;42.98;101346.81;4921344;29;20410;-73
2022/01/22 06:30:06;;;;;;;1.93;1.70;;;;;;;6.65;43.21;101317.69;4923974;29;20155;-75
2022/01/22 06:32:33;;;;;;;4.63;2.30;;;;;;;7.07;42.86;101353.75;4920794;29;20519;-72
2022/01/22 06:35:00;;;;;;;5.20;2.43;;;;;;;7.12;42.79;101366.97;4922755;29;20083;-73
2022/01/22 06:37:27;;;;;;;2.77;2.57;;;;;;;7.15;42.53;101352.59;4932325;29;20083;-74
2022/01/22 06:42:34;;;;;;;1.90;0.90;;;;;;;7.01;42.77;101385.28;4923546;29;20055;-74
2022/01/22 06:45:05;;;;;;;4.80;0.73;;;;;;;6.78;43.46;101363.84;4924709;29;20083;-74
2022/01/22 06:47:32;;;;;;;2.37;1.83;;;;;;;6.70;43.55;101369.72;4921965;29;20135;-73
2022/01/22 06:49:59;;;;;;;2.23;0.83;;;;;;;6.63;43.46;101367.03;4921469;29;20219;-72
2022/01/22 06:52:26;;;;;;;1.80;1.40;;;;;;;6.68;43.58;101385.75;4925983;29;20106;-73
2022/01/22 06:54:53;;;;;;;0.57;0.53;;;;;;;6.61;43.60;101352.53;4920942;29;20178;-74
2022/01/22 06:57:20;;;;;;;2.33;0.80;;;;;;;6.77;43.39;101383.47;4937995;29;20056;-73
2022/01/22 06:59:48;;;;;;;0.83;0.83;;;;;;;6.70;43.78;101374.41;4923870;29;20181;-77
2022/01/22 07:02:15;;;;;;;0.60;0.60;;;;;;;6.71;43.76;101390.00;4921104;29;20051;-80
2022/01/22 07:04:43;;;;;;;6.77;1.73;;;;;;;6.46;44.14;101398.41;4923381;29;20119;-81
2022/01/22 07:07:12;;;;;;;2.73;0.90;;;;;;;6.12;44.35;101368.31;4925465;29;20130;-75
2022/01/22 07:09:39;;;;;;;2.37;0.90;;;;;;;6.04;44.67;101343.66;4920300;29;20051;-79
2022/01/22 07:12:07;;;;;;;2.27;0.77;;;;;;;6.45;44.52;101369.00;4922622;29;20138;-81
2022/01/22 07:14:34;;;;;;;2.40;2.07;;;;;;;6.38;44.27;101413.47;4937976;28;21968;-72
2022/01/22 07:17:01;;;;;;;2.10;1.90;;;;;;;6.41;44.48;101388.03;4921033;29;20088;-70
2022/01/22 07:19:29;;;;;;;1.87;1.77;;;;;;;6.41;44.72;101399.97;4922834;29;20134;-79
2022/01/22 07:22:03;;;;;;;5.70;1.53;;;;;;;6.35;44.72;101427.78;4921268;29;20142;-74
2022/01/22 07:24:37;;;;;;;3.97;2.43;;;;;;;6.30;44.65;101425.72;4924137;29;20503;-72
2022/01/22 07:27:04;;;;;;;1.50;1.00;;;;;;;6.24;44.83;101401.69;4924782;29;20079;-68
2022/01/22 07:29:32;;;;;;;0.87;0.83;;;;;;;6.40;44.73;101416.84;4920057;29;20118;-74
2022/01/22 07:32:01;;;;;;;1.90;0.90;;;;;;;6.33;44.36;101367.00;4919518;28;20055;-67
2022/01/22 07:34:28;;;;;;;2.63;1.20;;;;;;;6.30;44.70;101411.00;4920974;29;20142;-67
2022/01/22 07:36:56;;;;;;;2.60;2.33;;;;;;;6.23;44.77;101413.00;4926237;29;20790;-68
2022/01/22 07:39:22;;;;;;;1.97;0.97;;;;;;;6.45;44.41;101424.47;4923073;29;20143;-68
2022/01/22 07:41:51;;;;;;;2.20;1.30;;;;;;;6.18;44.74;101419.22;4923876;29;20054;-68
2022/01/22 07:44:18;;;;;;;2.47;1.37;;;;;;;6.32;44.48;101422.69;4955206;28;20134;-68
2022/01/22 07:46:45;;;;;;;1.73;1.10;;;;;;;6.30;44.88;101411.84;4922905;29;20060;-69
2022/01/22 07:49:11;;;;;;;1.90;0.70;;;;;;;6.41;44.43;101422.16;4919250;29;20510;-68
2022/01/22 07:51:40;;;;;;;3.27;3.00;;;;;;;6.16;44.42;101393.66;4918631;29;20130;-69
2022/01/22 07:54:07;;;;;;;1.50;1.13;;;;;;;6.48;44.36;101446.22;4932237;28;20172;-68
2022/01/22 07:56:33;;;;;;;5.07;1.20;;;;;;;6.50;44.44;101433.81;4920412;29;20142;-68
2022/01/22 07:59:00;;;;;;;1.97;0.90;;;;;;;6.36;44.55;101437.84;4919786;29;20602;-68
2022/01/22 08:01:27;;;;;;;2.00;0.97;;;;;;;6.37;44.71;101420.94;4921035;29;20178;-69
2022/01/22 08:03:54;;;;;;;3.87;2.23;;;;;;;6.38;44.50;101433.72;4920283;29;20043;-70
2022/01/22 08:06:21;;;;;;;2.20;1.33;;;;;;;6.31;44.82;101449.59;4932548;29;20051;-68
2022/01/22 08:08:48;;;;;;;1.20;0.90;;;;;;;6.45;44.72;101441.13;4920959;29;20059;-68
2022/01/22 08:11:15;;;;;;;4.17;0.70;;;;;;;6.49;44.39;101434.03;4917827;29;20716;-68
2022/01/22 08:13:41;;;;;;;3.10;2.20;;;;;;;6.53;44.59;101482.44;4921589;29;20078;-68
2022/01/22 08:16:08;;;;;;;3.00;1.30;;;;;;;6.58;44.50;101436.25;4951220;28;20477;-68
2022/01/22 08:18:35;;;;;;;3.87;2.13;;;;;;;6.71;43.99;101443.59;4924989;29;20051;-69
2022/01/22 08:21:02;;;;;;;3.23;1.20;;;;;;;6.83;43.62;101430.59;4923332;29;20086;-70
2022/01/22 08:23:30;;;;;;;2.60;2.40;;;;;;;6.63;43.34;101394.78;4924472;29;20087;-67
2022/01/22 08:25:57;;;;;;;1.20;0.87;;;;;;;7.31;42.79;101423.28;4927313;29;20089;-69
2022/01/22 08:36:40;;;;;;;2.70;1.40;;;;;;;8.00;41.26;101418.03;4919602;29;20059;-65
2022/01/22 08:39:08;;;;;;;1.70;1.50;;;;;;;7.97;40.97;101426.88;4925529;29;20135;-67
2022/01/22 08:41:36;;;;;;;1.27;1.00;;;;;;;8.16;40.78;101442.34;4920848;29;20139;-66
2022/01/22 08:44:04;;;;;;;1.87;1.17;;;;;;;8.35;40.52;101439.44;4920486;29;20060;-67
2022/01/22 08:46:32;;;;;;;1.77;1.63;;;;;;;7.99;40.25;101397.72;4921697;29;20052;-68
2022/01/22 08:48:58;;;;;;;2.73;1.13;;;;;;;8.37;40.12;101421.38;4926448;29;20060;-67
2022/01/22 08:51:25;;;;;;;2.43;1.37;;;;;;;8.64;39.78;101455.13;4919112;29;20066;-67
2022/01/22 08:53:55;;;;;;;2.03;1.00;;;;;;;8.93;39.52;101433.75;4920029;29;20079;-69
2022/01/22 08:56:22;;;;;;;1.37;1.17;;;;;;;8.66;39.37;101413.97;4921674;29;20147;-69
2022/01/22 08:58:48;;;;;;;1.40;1.30;;;;;;;9.08;38.94;101461.03;4921469;29;20056;-70
2022/01/22 09:01:15;;;;;;;2.27;1.30;;;;;;;9.06;38.94;101454.91;4921393;29;20055;-70
2022/01/22 09:03:42;;;;;;;2.03;0.90;;;;;;;9.39;38.57;101433.75;4921632;29;20150;-69
2022/01/22 09:06:11;;;;;;;2.10;1.10;;;;;;;9.56;38.22;101437.41;4915510;29;20507;-70
2022/01/22 09:08:40;;;;;;;3.73;1.63;;;;;;;9.71;37.54;101454.41;4918839;29;20111;-70
2022/01/22 09:11:07;;;;;;;3.10;1.20;;;;;;;9.95;37.30;101460.66;4921359;29;20194;-69
2022/01/22 09:13:34;;;;;;;2.23;1.30;;;;;;;10.25;36.75;101441.84;4918927;29;20051;-70
2022/01/22 09:16:01;;;;;;;0.90;0.90;;;;;;;10.21;36.62;101411.66;4946951;28;20070;-70
2022/01/22 09:18:28;;;;;;;1.73;1.10;;;;;;;10.54;36.09;101434.19;4919358;29;20130;-69
2022/01/22 09:21:02;;;;;;;3.27;1.93;;;;;;;10.54;36.28;101507.66;4916955;29;20115;-70
2022/01/22 09:23:29;;;;;;;4.33;1.80;;;;;;;10.92;35.96;101469.59;4920425;29;20467;-71
2022/01/22 09:25:57;;;;;;;4.23;1.70;;;;;;;11.19;35.53;101474.41;4922272;29;20175;-70
2022/01/22 09:28:25;;;;;;;1.20;1.10;;;;;;;11.13;35.77;101432.41;4918850;29;20060;-71
2022/01/22 09:30:53;;;;;;;1.67;1.27;;;;;;;11.32;35.51;101446.03;4918572;29;20051;-69
2022/01/22 09:33:20;;;;;;;1.17;0.90;;;;;;;11.51;34.88;101469.69;4919323;29;20058;-70
2022/01/22 09:35:47;;;;;;;4.93;1.70;;;;;;;11.23;34.51;101500.72;4916502;29;20553;-71
2022/01/22 09:38:14;;;;;;;4.20;1.73;;;;;;;10.92;34.49;101441.66;4924463;29;20138;-72
2022/01/22 09:40:41;;;;;;;3.33;1.83;;;;;;;11.45;34.51;101456.75;4951224;28;20126;-70
2022/01/22 09:43:09;;;;;;;1.47;1.37;;;;;;;11.71;34.13;101483.03;4920049;29;20130;-71
2022/01/22 09:45:36;;;;;;;2.93;1.80;;;;;;;11.89;33.71;101453.00;4948032;28;20142;-71
2022/01/22 09:48:03;;;;;;;5.53;1.80;;;;;;;11.96;33.30;101445.22;4921397;29;20410;-70
2022/01/22 09:50:32;;;;;;;2.70;1.70;;;;;;;12.26;32.99;101467.00;4919312;29;20586;-72
2022/01/22 09:52:59;;;;;;;5.97;2.30;;;;;;;12.44;32.90;101466.56;4917593;29;20740;-69
2022/01/22 09:55:26;;;;;;;3.53;1.73;;;;;;;11.97;32.70;101414.19;4917501;29;20118;-69
2022/01/22 09:57:55;;;;;;;3.20;1.43;;;;;;;12.45;32.68;101482.25;4921867;29;20051;-70
2022/01/22 10:00:23;;;;;;;1.60;1.50;;;;;;;12.60;32.45;101472.25;4920951;29;20760;-69
2022/01/22 10:02:54;;;;;;;1.83;1.23;;;;;;;13.13;32.40;101470.22;4919127;29;20052;-70
2022/01/22 10:05:39;;;;;;;2.87;2.00;;;;;;;13.15;31.34;101490.44;4917854;29;20309;-70
2022/01/22 10:08:31;;;;;;;1.63;1.43;;;;;;;13.07;31.55;101488.19;4925480;29;20082;-70
2022/01/22 10:11:00;;;;;;;2.20;1.50;;;;;;;13.26;31.70;101475.34;4920390;29;20147;-70
2022/01/22 10:13:43;;;;;;;2.15;1.67;;;;;;;13.50;31.68;101490.59;4918720;29;20148;-70
2022/01/22 10:16:32;;;;;;;4.33;2.00;;;;;;;13.50;31.09;101479.38;4917006;29;20138;-70
2022/01/22 10:19:12;;;;;;;2.67;1.40;;;;;;;13.36;31.03;101482.97;4917348;29;20526;-69
2022/01/22 10:21:56;;;;;;;6.83;2.10;;;;;;;13.64;31.22;101492.84;4932078;28;20056;-69
2022/01/22 10:24:43;;;;;;;4.20;2.00;;;;;;;13.69;30.95;101479.66;4917392;29;20594;-70
2022/01/22 10:27:24;;;;;;;2.47;1.63;;;;;;;13.47;30.69;101499.56;4918593;29;20138;-70
2022/01/22 10:30:03;;;;;;;2.67;1.87;;;;;;;12.85;30.93;101483.59;4917273;29;20142;-70
2022/01/22 10:35:09;;;;;;;2.83;2.23;;;;;;;13.19;30.63;101489.59;4926615;29;20079;-70
2022/01/22 10:37:37;;;;;;;1.90;1.80;;;;;;;12.82;30.62;101416.88;4926826;29;20147;-70
2022/01/22 10:40:33;;;;;;;1.80;1.30;;;;;;;12.83;30.50;101494.25;4920207;29;21096;-71
2022/01/22 10:49:05;;;;;;;1.77;1.50;;;;;;;13.21;30.14;101525.81;4917862;29;20060;-69
2022/01/22 10:51:44;;;;;;;2.07;1.87;;;;;;;13.10;30.42;101510.91;4921681;29;20150;-70
2022/01/22 10:54:13;;;;;;;1.95;1.85;;;;;;;13.16;30.52;101501.41;4925287;29;20510;-69
2022/01/22 10:56:41;;;;;;;2.30;2.03;;;;;;;13.28;30.20;101509.59;4938642;29;20090;-70
2022/01/22 10:59:10;;;;;;;1.60;1.50;;;;;;;13.54;30.31;101524.56;4943079;29;20071;-69
2022/01/22 11:01:43;;;;;;;2.33;2.13;;;;;;;13.84;29.99;101500.44;4944430;29;20043;-70
2022/01/22 11:04:36;;;;;;;2.70;1.73;;;;;;;13.80;29.63;101502.13;4948008;29;20059;-69
2022/01/22 11:07:06;;;;;;;2.93;1.47;;;;;;;14.00;29.63;101510.56;4964938;28;20043;-69
2022/01/22 11:09:53;;;;;;;3.65;2.00;;;;;;;14.12;29.52;101516.75;4948275;29;20047;-70
2022/01/22 11:12:20;;;;;;;2.40;2.03;;;;;;;14.33;29.20;101517.59;4946860;29;20075;-71
2022/01/22 11:14:47;;;;;;;3.30;3.00;;;;;;;14.13;28.63;101500.75;4947954;29;20032;-71
2022/01/22 11:17:14;;;;;;;3.33;2.40;;;;;;;13.94;28.87;101501.28;4933156;29;20087;-70
2022/01/22 11:19:44;;;;;;;3.40;2.17;;;;;;;14.17;28.78;101501.88;4921663;29;21943;-69
2022/01/22 11:22:13;;;;;;;;;;;;;;;14.08;28.71;101498.75;4928300;29;20090;-70
2022/01/22 11:24:45;;;;;;;2.10;1.90;;;;;;;14.30;28.19;101501.28;4925581;29;20061;-70
2022/01/22 11:27:18;;;;;;;2.40;2.20;;;;;;;14.45;28.00;101509.69;4920670;29;20590;-69
2022/01/22 11:30:01;;;;;;;2.53;2.03;;;;;;;14.80;28.19;101509.94;4920354;29;20060;-70
2022/01/22 11:32:49;;;;;;;2.70;2.50;;;;;;;14.48;27.37;101504.66;4919540;29;20134;-70
2022/01/22 11:36:01;;;;;;;4.93;2.23;;;;;;;14.60;27.85;101494.81;4920202;29;20075;-70
2022/01/22 11:38:33;;;;;;;4.23;2.43;;;;;;;14.76;27.33;101489.13;4919929;28;20066;-70
2022/01/22 11:41:05;;;;;;;4.07;2.73;;;;;;;14.88;27.04;101506.53;4936978;28;20059;-70
2022/01/22 11:44:12;;;;;;;2.43;2.23;;;;;;;14.67;27.09;101500.97;4944674;28;20083;-69
2022/01/22 11:46:43;;;;;;;2.10;1.90;;;;;;;14.93;27.25;101481.19;4934273;28;20142;-70
2022/01/22 11:49:26;;;;;;;2.10;2.00;;;;;;;15.16;27.05;101486.16;4919240;29;20563;-70
2022/01/22 11:52:13;;;;;;;2.87;2.60;;;;;;;15.73;26.30;101489.53;4922001;29;20134;-70
2022/01/22 11:54:52;;;;;;;3.80;2.57;;;;;;;16.04;26.29;101489.28;4921240;29;20488;-71
2022/01/22 11:57:20;;;;;;;2.10;1.90;;;;;;;16.59;25.78;101473.81;4922954;29;20138;-70
2022/01/22 11:59:47;;;;;;;4.53;2.55;;;;;;;16.93;25.15;101503.09;4919984;29;20397;-71
2022/01/22 12:02:16;;;;;;;7.13;2.53;;;;;;;16.96;25.36;101474.28;4921237;29;20570;-70
2022/01/22 12:04:44;;;;;;;2.20;2.00;;;;;;;17.31;24.65;101494.69;4919887;29;20063;-69
2022/01/22 12:07:14;;;;;;;2.25;2.05;;;;;;;17.96;24.85;101475.09;4928701;29;20787;-70
2022/01/22 12:09:53;;;;;;;4.97;2.65;;;;;;;18.23;23.98;101449.75;4921036;29;20151;-69
2022/01/22 12:15:20;;;;;;;4.38;3.00;;;;;;;19.38;22.99;101456.47;4927278;29;20480;-71
2022/01/22 12:17:59;;;;;;;2.70;2.50;;;;;;;19.28;22.37;101446.25;4918573;29;20070;-70
2022/01/22 12:23:15;;;;;;;5.82;3.28;;;;;;;20.32;22.08;101424.38;4922337;29;20048;-70
2022/01/22 12:25:42;;;;;;;4.18;2.88;;;;;;;20.76;21.29;101433.97;4919065;29;20485;-71
2022/01/22 12:28:12;;;;;;;4.47;2.47;;;;;;;21.17;21.20;101414.88;4919419;29;20478;-70
2022/01/22 12:30:42;;;;;;;4.45;3.50;;;;;;;21.17;21.00;101429.91;4932316;29;20452;-70
2022/01/22 12:33:33;;;;;;;3.97;3.28;;;;;;;21.27;20.78;101415.38;4937287;29;20044;-70
2022/01/22 12:36:02;;;;;;;2.88;2.45;;;;;;;21.11;21.09;101416.19;4921173;28;20522;-70
2022/01/22 12:46:57;;;;;;;7.90;2.67;;;;;;;20.88;20.88;101395.59;4936650;29;20063;-70
2022/01/22 12:49:26;;;;;;;4.95;2.78;;;;;;;20.96;20.90;101380.59;4930434;29;20139;-71
2022/01/22 12:51:59;;;;;;;7.60;4.50;;;;;;;21.08;21.22;101371.41;4920912;29;20534;-71
2022/01/22 12:54:32;;;;;;;3.90;2.78;;;;;;;21.70;20.55;101380.47;4936348;29;20135;-70
2022/01/22 12:57:09;;;;;;;6.32;3.70;;;;;;;21.94;20.74;101370.56;4936776;29;20429;-70
2022/01/22 13:02:39;;;;;;;4.93;3.00;;;;;;;21.69;19.86;101372.28;4936516;29;20519;-70
2022/01/22 13:05:08;;;;;;;3.03;2.58;;;;;;;21.03;20.41;101367.56;4936903;29;20074;-70
2022/01/22 13:07:44;;;;;;;3.40;2.83;;;;;;;21.01;20.60;101355.69;4936179;29;20048;-71
2022/01/22 13:10:12;;;;;;;4.30;2.63;;;;;;;21.01;20.49;101367.06;4936433;29;20102;-71
2022/01/22 13:12:44;;;;;;;7.80;3.17;;;;;;;20.82;20.83;101356.00;4935797;29;20134;-70
2022/01/22 13:15:15;;;;;;;4.63;3.42;;;;;;;21.18;20.58;101332.16;4936685;29;20059;-70
2022/01/22 13:17:52;;;;;;;6.47;4.03;;;;;;;21.73;20.69;101336.31;4936140;29;20063;-71
2022/01/22 13:20:24;;;;;;;6.78;3.40;;;;;;;22.69;19.84;101308.34;4936071;29;20047;-71
2022/01/22 13:22:52;;;;;;;7.38;3.17;;;;;;;22.77;19.58;101310.31;4934893;29;20130;-70
2022/01/22 13:25:24;;;;;;;5.63;3.30;;;;;;;23.04;19.61;101334.63;4935189;29;20515;-70
2022/01/22 13:28:10;;;;;;;6.00;4.07;;;;;;;23.05;19.26;101324.06;4936057;29;20075;-71
2022/01/22 13:30:44;;;;;;;5.45;3.50;;;;;;;23.24;18.74;101330.09;4928533;29;20138;-71
2022/01/22 13:33:22;;;;;;;3.88;3.47;;;;;;;22.65;19.27;101330.97;4926898;29;20084;-70
2022/01/22 13:36:20;;;;;;;4.78;2.65;;;;;;;21.00;20.26;101325.63;4932252;29;20052;-70
2022/01/22 13:49:51;;;;;;;6.03;2.10;;;;;;;15.51;26.57;101321.00;4932659;29;20519;-71
2022/01/22 13:52:20;;;;;;;1.88;1.08;;;;;;;15.29;26.43;101289.69;4930600;29;20083;-69
2022/01/22 13:54:51;;;;;;;2.65;1.73;;;;;;;14.91;27.51;101321.19;4937232;29;20083;-70
2022/01/22 13:57:21;;;;;;;2.57;1.93;;;;;;;14.72;27.61;101300.50;4933651;29;20090;-70
2022/01/22 13:59:52;;;;;;;1.97;1.37;;;;;;;14.64;27.71;101298.31;4935333;29;20810;-71